Time;durP1;ratioP1;P1;durP2;ratioP2;P2;SDS_P1;SDS_P2;PMS_P1;PMS_P2;Temp;Humidity;BMP_temperature;BMP_pressure;BME280_temperature;BME280_humidity;BME280_pressure;Samples;Min_cycle;Max_cycle;Signal;HPM_P1;HPM_P2
2024/01/03 00:00:06;;;;;;;10.73;2.00;;;;;;;;;;5078843;28;20181;-68
2024/01/03 00:02:31;;;;;;;6.45;1.50;;;;;;;;;;5089696;28;20024;-68
2024/01/03 00:04:56;;;;;;;5.93;1.50;;;;;;;;;;5088983;28;20489;-68
2024/01/03 00:07:22;;;;;;;10.55;1.38;;;;;;;;;;5090909;28;20023;-68
2024/01/03 00:09:47;;;;;;;6.22;1.63;;;;;;;;;;5087806;28;20134;-68
2024/01/03 00:12:18;;;;;;;10.63;1.45;;;;;;;;;;5087294;28;20059;-69
2024/01/03 00:14:43;;;;;;;14.43;2.00;;;;;;;;;;5088281;28;20032;-68
2024/01/03 00:17:10;;;;;;;12.43;2.10;;;;;;;;;;5090265;28;20024;-69
2024/01/03 00:19:37;;;;;;;5.97;1.38;;;;;;;;;;5089270;28;20262;-68
2024/01/03 00:22:02;;;;;;;5.05;1.48;;;;;;;;;;5089321;28;20111;-69
2024/01/03 00:24:28;;;;;;;8.95;1.42;;;;;;;;;;5090045;28;20122;-69
2024/01/03 00:26:53;;;;;;;3.60;1.17;;;;;;;;;;5090638;28;20028;-68
2024/01/03 00:29:38;;;;;;;3.85;1.33;;;;;;;;;;5091237;28;20032;-68
2024/01/03 00:32:05;;;;;;;7.88;1.40;;;;;;;;;;5082217;28;20039;-68
2024/01/03 00:34:37;;;;;;;7.75;2.13;;;;;;;;;;5090622;28;20362;-68
2024/01/03 00:37:07;;;;;;;5.25;1.05;;;;;;;;;;5091598;28;20111;-69
2024/01/03 00:39:33;;;;;;;6.95;1.20;;;;;;;;;;5087860;28;20074;-68
2024/01/03 00:41:59;;;;;;;4.95;1.42;;;;;;;;;;5087668;28;20036;-68
2024/01/03 00:44:24;;;;;;;7.80;1.40;;;;;;;;;;5089604;28;20070;-68
2024/01/03 00:46:50;;;;;;;3.67;1.50;;;;;;;;;;5091012;28;20537;-68
2024/01/03 00:49:15;;;;;;;7.47;1.67;;;;;;;;;;5090326;28;20780;-69
2024/01/03 00:51:45;;;;;;;4.43;1.10;;;;;;;;;;5089753;28;20023;-69
2024/01/03 00:54:10;;;;;;;6.90;1.50;;;;;;;;;;5091364;28;20172;-69
2024/01/03 00:56:36;;;;;;;7.20;1.23;;;;;;;;;;5091365;28;20024;-68
2024/01/03 00:59:01;;;;;;;5.20;1.33;;;;;;;;;;5090845;28;20127;-68
2024/01/03 01:01:26;;;;;;;7.82;1.45;;;;;;;;;;5091209;28;20020;-68
2024/01/03 01:03:51;;;;;;;4.43;1.00;;;;;;;;;;5091536;28;20028;-68
2024/01/03 01:06:17;;;;;;;4.90;1.63;;;;;;;;;;5090081;28;20513;-68
2024/01/03 01:08:42;;;;;;;3.78;0.85;;;;;;;;;;5080129;28;20039;-68
2024/01/03 01:11:07;;;;;;;8.50;1.52;;;;;;;;;;5088385;28;20036;-68
2024/01/03 01:13:32;;;;;;;6.87;1.87;;;;;;;;;;5089625;28;20170;-68
2024/01/03 01:15:58;;;;;;;9.33;1.53;;;;;;;;;;5090799;28;20715;-69
2024/01/03 01:18:23;;;;;;;8.50;1.43;;;;;;;;;;5090502;28;20763;-69
2024/01/03 01:20:48;;;;;;;4.17;1.30;;;;;;;;;;5089883;28;20660;-68
2024/01/03 01:23:13;;;;;;;5.47;1.13;;;;;;;;;;5090135;28;20352;-68
2024/01/03 01:25:38;;;;;;;6.63;0.77;;;;;;;;;;5091347;28;20310;-68
2024/01/03 01:28:04;;;;;;;10.67;1.53;;;;;;;;;;5090428;28;20636;-69
2024/01/03 01:30:29;;;;;;;6.60;1.52;;;;;;;;;;5085538;28;20847;-68
2024/01/03 01:32:54;;;;;;;6.20;1.27;;;;;;;;;;5090539;28;20024;-69
2024/01/03 01:35:19;;;;;;;4.63;1.10;;;;;;;;;;5080707;28;20340;-68
2024/01/03 01:37:45;;;;;;;8.13;1.25;;;;;;;;;;5090687;28;20363;-68
2024/01/03 01:40:11;;;;;;;7.97;1.40;;;;;;;;;;5090165;28;20063;-70
2024/01/03 01:42:36;;;;;;;6.45;1.40;;;;;;;;;;5090366;28;20051;-70
2024/01/03 01:45:01;;;;;;;6.13;0.95;;;;;;;;;;5090436;28;20024;-68
2024/01/03 01:47:26;;;;;;;3.10;0.85;;;;;;;;;;5076148;28;20472;-69
2024/01/03 01:49:52;;;;;;;4.45;1.25;;;;;;;;;;5090082;28;20028;-67
2024/01/03 01:52:19;;;;;;;4.10;1.23;;;;;;;;;;5089590;28;20478;-70
2024/01/03 01:54:44;;;;;;;4.93;0.95;;;;;;;;;;5089066;28;20536;-70
2024/01/03 01:57:10;;;;;;;3.83;0.95;;;;;;;;;;5089402;28;20056;-67
2024/01/03 01:59:36;;;;;;;4.57;1.58;;;;;;;;;;5090574;28;20048;-70
2024/01/03 02:02:01;;;;;;;3.63;1.00;;;;;;;;;;5069785;28;20102;-69
2024/01/03 02:04:27;;;;;;;1.23;0.38;;;;;;;;;;5090341;28;20024;-68
2024/01/03 02:06:52;;;;;;;4.45;0.80;;;;;;;;;;5087974;28;20032;-68
2024/01/03 02:09:17;;;;;;;6.00;1.02;;;;;;;;;;5089221;28;20469;-68
2024/01/03 02:11:46;;;;;;;4.72;1.10;;;;;;;;;;5087989;28;20054;-68
2024/01/03 02:14:11;;;;;;;7.28;1.38;;;;;;;;;;5090198;28;20027;-67
2024/01/03 02:16:36;;;;;;;3.83;1.02;;;;;;;;;;5090203;28;20040;-69
2024/01/03 02:19:04;;;;;;;2.95;0.70;;;;;;;;;;5080024;28;20557;-68
2024/01/03 02:21:29;;;;;;;5.60;0.80;;;;;;;;;;5089292;28;20020;-68
2024/01/03 02:23:54;;;;;;;4.32;1.20;;;;;;;;;;5087976;28;20027;-68
2024/01/03 02:26:20;;;;;;;9.07;1.33;;;;;;;;;;5089636;28;20698;-68
2024/01/03 02:28:46;;;;;;;7.90;1.35;;;;;;;;;;5089109;28;20636;-68
2024/01/03 02:31:11;;;;;;;4.80;1.00;;;;;;;;;;5089366;28;20020;-68
2024/01/03 02:33:36;;;;;;;3.70;0.63;;;;;;;;;;5089826;28;20035;-68
2024/01/03 02:36:02;;;;;;;6.13;1.17;;;;;;;;;;5089376;28;20102;-68
2024/01/03 02:38:27;;;;;;;5.05;1.23;;;;;;;;;;5087862;28;20137;-69
2024/01/03 02:40:52;;;;;;;5.30;1.17;;;;;;;;;;5087144;28;20027;-69
2024/01/03 02:43:18;;;;;;;5.87;1.37;;;;;;;;;;5088553;28;20273;-70
2024/01/03 02:45:43;;;;;;;3.90;0.83;;;;;;;;;;5088563;28;20285;-68
2024/01/03 02:48:08;;;;;;;2.67;1.00;;;;;;;;;;5089169;28;20282;-68
2024/01/03 02:50:34;;;;;;;2.58;0.75;;;;;;;;;;5087555;28;20470;-68
2024/01/03 02:53:00;;;;;;;4.22;0.88;;;;;;;;;;5088845;28;20028;-68
2024/01/03 02:55:25;;;;;;;2.72;0.70;;;;;;;;;;5089940;28;20028;-67
2024/01/03 02:57:51;;;;;;;1.60;0.30;;;;;;;;;;5075395;28;20024;-68
2024/01/03 03:00:16;;;;;;;2.63;0.77;;;;;;;;;;5088275;28;20323;-69
2024/01/03 03:02:41;;;;;;;2.22;0.60;;;;;;;;;;5088371;28;20315;-68
2024/01/03 03:05:06;;;;;;;3.43;0.70;;;;;;;;;;5089481;28;20032;-68
2024/01/03 03:07:32;;;;;;;4.03;1.17;;;;;;;;;;5085671;28;20309;-68
2024/01/03 03:09:57;;;;;;;3.90;0.98;;;;;;;;;;5087293;28;20402;-68
2024/01/03 03:12:23;;;;;;;3.08;1.00;;;;;;;;;;5087144;28;20039;-68
2024/01/03 03:14:49;;;;;;;6.68;0.95;;;;;;;;;;5086630;28;20012;-68
2024/01/03 03:17:14;;;;;;;4.05;0.90;;;;;;;;;;5087504;28;20039;-68
2024/01/03 03:19:39;;;;;;;5.55;0.80;;;;;;;;;;5088287;28;20481;-68
2024/01/03 03:22:04;;;;;;;3.53;0.77;;;;;;;;;;5086777;28;20016;-68
2024/01/03 03:24:30;;;;;;;5.70;1.15;;;;;;;;;;5088180;28;20270;-69
2024/01/03 03:26:55;;;;;;;4.10;0.93;;;;;;;;;;5089395;28;20066;-68
2024/01/03 03:29:20;;;;;;;7.47;1.45;;;;;;;;;;5089025;28;20085;-68
2024/01/03 03:31:45;;;;;;;3.85;1.25;;;;;;;;;;5089321;28;20028;-68
2024/01/03 03:34:11;;;;;;;5.50;1.20;;;;;;;;;;5089151;28;20062;-68
2024/01/03 03:36:36;;;;;;;10.60;1.83;;;;;;;;;;5088706;28;20020;-69
2024/01/03 03:39:01;;;;;;;6.33;1.40;;;;;;;;;;5087227;28;20026;-69
2024/01/03 03:41:26;;;;;;;9.00;1.10;;;;;;;;;;5087345;28;20846;-68
2024/01/03 03:43:52;;;;;;;6.37;1.63;;;;;;;;;;5073767;28;20016;-70
2024/01/03 03:46:18;;;;;;;5.43;1.40;;;;;;;;;;5086138;28;20285;-69
2024/01/03 03:48:43;;;;;;;7.00;1.42;;;;;;;;;;5082113;28;20031;-70
2024/01/03 03:51:08;;;;;;;4.17;0.97;;;;;;;;;;5087572;28;20024;-69
2024/01/03 03:53:33;;;;;;;8.80;1.80;;;;;;;;;;5084938;28;20270;-69
2024/01/03 03:55:59;;;;;;;5.77;1.10;;;;;;;;;;5084356;28;20021;-68
2024/01/03 03:58:24;;;;;;;4.63;1.10;;;;;;;;;;5078746;28;20278;-68
2024/01/03 04:00:50;;;;;;;6.03;1.10;;;;;;;;;;5088919;28;20278;-68
2024/01/03 04:03:15;;;;;;;5.43;1.45;;;;;;;;;;5086942;28;20463;-68
2024/01/03 04:05:40;;;;;;;9.05;1.17;;;;;;;;;;5087887;28;20032;-68
2024/01/03 04:08:05;;;;;;;5.25;1.40;;;;;;;;;;5067225;28;20036;-68
2024/01/03 04:10:31;;;;;;;4.00;1.27;;;;;;;;;;5087842;28;20256;-68
2024/01/03 04:12:56;;;;;;;5.43;1.17;;;;;;;;;;5087419;28;20114;-68
2024/01/03 04:15:22;;;;;;;3.67;0.90;;;;;;;;;;5087630;28;20032;-69
2024/01/03 04:17:47;;;;;;;6.35;1.60;;;;;;;;;;5088378;28;20086;-70
2024/01/03 04:20:13;;;;;;;8.90;1.08;;;;;;;;;;5092265;28;20079;-69
2024/01/03 04:22:41;;;;;;;8.68;1.42;;;;;;;;;;5093273;28;20063;-69
2024/01/03 04:25:07;;;;;;;9.85;1.70;;;;;;;;;;5090467;28;20130;-69
2024/01/03 04:27:32;;;;;;;6.57;1.33;;;;;;;;;;5090675;28;20112;-70
2024/01/03 04:29:57;;;;;;;7.90;1.50;;;;;;;;;;5090000;28;20044;-70
2024/01/03 04:32:22;;;;;;;12.30;2.00;;;;;;;;;;5090176;28;20027;-70
2024/01/03 04:34:48;;;;;;;8.80;1.92;;;;;;;;;;5089944;28;20320;-71
2024/01/03 04:37:13;;;;;;;5.80;1.57;;;;;;;;;;5090443;28;20425;-70
2024/01/03 04:39:38;;;;;;;8.07;1.80;;;;;;;;;;5091203;28;20807;-70
2024/01/03 04:42:03;;;;;;;15.17;1.83;;;;;;;;;;5088820;28;20069;-70
2024/01/03 04:44:29;;;;;;;8.27;1.60;;;;;;;;;;5090437;28;20275;-70
2024/01/03 04:46:54;;;;;;;8.27;1.80;;;;;;;;;;5089290;28;20019;-70
2024/01/03 04:49:19;;;;;;;5.50;1.33;;;;;;;;;;5091013;28;20024;-70
2024/01/03 04:51:44;;;;;;;6.47;1.30;;;;;;;;;;5089607;28;20290;-70
2024/01/03 04:54:10;;;;;;;5.53;1.40;;;;;;;;;;5089370;28;20278;-69
2024/01/03 04:56:35;;;;;;;8.40;1.60;;;;;;;;;;5088901;28;20296;-70
2024/01/03 04:59:00;;;;;;;9.10;1.55;;;;;;;;;;5089205;28;20274;-70
2024/01/03 05:01:26;;;;;;;7.28;1.45;;;;;;;;;;5090440;28;20062;-70
2024/01/03 05:03:51;;;;;;;4.95;1.67;;;;;;;;;;5089630;28;20178;-70
2024/01/03 05:06:17;;;;;;;8.88;1.60;;;;;;;;;;5089829;28;20024;-70
2024/01/03 05:08:42;;;;;;;3.45;1.17;;;;;;;;;;5089363;28;20028;-71
2024/01/03 05:11:09;;;;;;;6.73;1.50;;;;;;;;;;5089975;28;20047;-71
2024/01/03 05:13:34;;;;;;;10.38;1.98;;;;;;;;;;5089295;28;20305;-71
2024/01/03 05:16:00;;;;;;;5.47;1.52;;;;;;;;;;5088744;28;20104;-71
2024/01/03 05:18:27;;;;;;;9.13;1.90;;;;;;;;;;5087732;28;20029;-71
2024/01/03 05:20:52;;;;;;;6.70;1.35;;;;;;;;;;5088185;28;20797;-72
2024/01/03 05:23:17;;;;;;;10.57;1.90;;;;;;;;;;5088048;28;20040;-72
2024/01/03 05:25:43;;;;;;;8.73;1.77;;;;;;;;;;5087957;28;20358;-71
2024/01/03 05:28:08;;;;;;;7.35;1.65;;;;;;;;;;5068228;28;20373;-71
2024/01/03 05:30:33;;;;;;;6.70;1.67;;;;;;;;;;5088771;28;20032;-71
2024/01/03 05:32:58;;;;;;;8.40;1.70;;;;;;;;;;5090477;28;20289;-71
2024/01/03 05:35:23;;;;;;;13.23;1.70;;;;;;;;;;5089937;28;20270;-71
2024/01/03 05:37:51;;;;;;;8.03;1.90;;;;;;;;;;5090488;28;20288;-70
2024/01/03 05:40:18;;;;;;;9.48;2.10;;;;;;;;;;5090396;28;20340;-72
2024/01/03 05:42:43;;;;;;;8.88;2.30;;;;;;;;;;5089638;28;20020;-71
2024/01/03 05:45:08;;;;;;;6.45;1.90;;;;;;;;;;5087643;28;20050;-72
2024/01/03 05:47:34;;;;;;;9.25;2.10;;;;;;;;;;5089212;28;20545;-72
2024/01/03 05:49:59;;;;;;;11.00;2.93;;;;;;;;;;5087856;28;20090;-71
2024/01/03 05:52:24;;;;;;;17.20;2.67;;;;;;;;;;5085499;28;20290;-71
2024/01/03 05:54:49;;;;;;;5.20;2.03;;;;;;;;;;5085330;28;20282;-71
2024/01/03 05:57:15;;;;;;;8.60;1.87;;;;;;;;;;5083837;28;20047;-71
2024/01/03 05:59:40;;;;;;;15.27;2.88;;;;;;;;;;5088237;28;20282;-71
2024/01/03 06:02:05;;;;;;;14.57;2.80;;;;;;;;;;5078223;28;20583;-70
2024/01/03 06:04:30;;;;;;;10.00;2.15;;;;;;;;;;5087904;28;20056;-70
2024/01/03 06:06:56;;;;;;;16.60;2.20;;;;;;;;;;5087722;28;20028;-72
2024/01/03 06:09:21;;;;;;;11.33;1.73;;;;;;;;;;5087611;28;20286;-70
2024/01/03 06:11:46;;;;;;;12.80;2.33;;;;;;;;;;5068971;28;20293;-70
2024/01/03 06:14:11;;;;;;;9.10;2.38;;;;;;;;;;5087174;28;20371;-69
2024/01/03 06:16:37;;;;;;;6.60;2.25;;;;;;;;;;5088258;28;20028;-70
2024/01/03 06:19:02;;;;;;;12.87;2.33;;;;;;;;;;5088497;28;20463;-72
2024/01/03 06:21:27;;;;;;;12.90;2.93;;;;;;;;;;5087930;28;20624;-72
2024/01/03 06:23:52;;;;;;;10.30;2.47;;;;;;;;;;5085709;28;20621;-70
2024/01/03 06:26:17;;;;;;;13.77;2.40;;;;;;;;;;5089709;28;20714;-70
2024/01/03 06:28:43;;;;;;;6.90;2.00;;;;;;;;;;5089799;28;20082;-71
2024/01/03 06:31:08;;;;;;;7.30;2.17;;;;;;;;;;5087898;28;20304;-72
2024/01/03 06:33:33;;;;;;;11.15;2.78;;;;;;;;;;5088290;28;20028;-69
2024/01/03 06:35:59;;;;;;;11.60;2.10;;;;;;;;;;5086886;28;20556;-69
2024/01/03 06:38:24;;;;;;;13.70;2.30;;;;;;;;;;5088645;28;20388;-69
2024/01/03 06:40:50;;;;;;;10.02;2.25;;;;;;;;;;5087370;28;20462;-70
2024/01/03 06:43:15;;;;;;;7.40;1.80;;;;;;;;;;5089191;28;20032;-70
2024/01/03 06:45:40;;;;;;;11.00;1.73;;;;;;;;;;5087543;28;20416;-69
2024/01/03 06:48:06;;;;;;;9.43;2.25;;;;;;;;;;5088468;28;20030;-69
2024/01/03 06:50:31;;;;;;;8.85;2.38;;;;;;;;;;5086717;28;20043;-69
2024/01/03 06:52:56;;;;;;;10.13;2.33;;;;;;;;;;5086001;28;20027;-71
2024/01/03 06:55:21;;;;;;;9.43;1.97;;;;;;;;;;5086570;28;20281;-70
2024/01/03 06:57:48;;;;;;;11.27;2.17;;;;;;;;;;5086207;28;20343;-68
2024/01/03 07:00:14;;;;;;;7.05;1.35;;;;;;;;;;5087364;28;20277;-69
2024/01/03 07:02:39;;;;;;;8.07;1.63;;;;;;;;;;5087385;28;20362;-68
2024/01/03 07:05:05;;;;;;;6.27;1.43;;;;;;;;;;5086048;28;20028;-69
2024/01/03 07:07:30;;;;;;;5.70;1.15;;;;;;;;;;5088137;28;20759;-68
2024/01/03 07:09:55;;;;;;;2.83;0.83;;;;;;;;;;5090235;28;20060;-69
2024/01/03 07:12:20;;;;;;;2.83;0.90;;;;;;;;;;5091323;28;20274;-68
2024/01/03 07:14:45;;;;;;;3.55;0.98;;;;;;;;;;5090775;28;20266;-68
2024/01/03 07:17:11;;;;;;;3.73;0.80;;;;;;;;;;5091576;28;20107;-68
2024/01/03 07:19:36;;;;;;;5.63;1.08;;;;;;;;;;5091061;28;20368;-68
2024/01/03 07:22:01;;;;;;;5.07;0.80;;;;;;;;;;5091500;28;20504;-68
2024/01/03 07:24:26;;;;;;;4.75;0.90;;;;;;;;;;5087517;28;20669;-68
2024/01/03 07:26:52;;;;;;;5.73;0.93;;;;;;;;;;5090809;28;20036;-68
2024/01/03 07:29:17;;;;;;;6.28;1.58;;;;;;;;;;5090763;28;20294;-68
2024/01/03 07:31:42;;;;;;;3.95;0.93;;;;;;;;;;5091890;28;20054;-69
2024/01/03 07:34:08;;;;;;;4.72;1.17;;;;;;;;;;5090056;28;20095;-68
2024/01/03 07:36:33;;;;;;;4.70;0.77;;;;;;;;;;5091463;28;20028;-68
2024/01/03 07:39:00;;;;;;;4.83;1.00;;;;;;;;;;5091338;28;20109;-68
2024/01/03 07:41:25;;;;;;;5.03;1.23;;;;;;;;;;5090972;28;20727;-68
2024/01/03 07:43:50;;;;;;;7.63;1.77;;;;;;;;;;5091172;28;20095;-68
2024/01/03 07:46:16;;;;;;;7.60;1.30;;;;;;;;;;5090323;28;20339;-68
2024/01/03 07:48:41;;;;;;;7.28;1.73;;;;;;;;;;5089931;28;20266;-68
2024/01/03 07:51:06;;;;;;;7.82;1.77;;;;;;;;;;5091060;28;20470;-68
2024/01/03 07:53:31;;;;;;;7.85;1.25;;;;;;;;;;5076740;28;20028;-68
2024/01/03 07:55:57;;;;;;;6.60;1.83;;;;;;;;;;5093460;28;20035;-67
2024/01/03 07:58:22;;;;;;;7.97;1.80;;;;;;;;;;5094028;28;20024;-69
2024/01/03 08:00:47;;;;;;;7.97;1.37;;;;;;;;;;5093555;28;20266;-68
2024/01/03 08:03:12;;;;;;;4.28;1.52;;;;;;;;;;5094378;28;20281;-68
2024/01/03 08:05:37;;;;;;;6.70;1.53;;;;;;;;;;5093910;28;20036;-68
2024/01/03 08:08:03;;;;;;;5.43;1.47;;;;;;;;;;5093941;28;20274;-68
2024/01/03 08:10:28;;;;;;;4.25;1.10;;;;;;;;;;5073493;28;20286;-69
2024/01/03 08:12:53;;;;;;;6.60;1.48;;;;;;;;;;5094420;28;20024;-68
2024/01/03 08:15:18;;;;;;;5.35;0.98;;;;;;;;;;5094205;28;20089;-68
2024/01/03 08:17:44;;;;;;;5.57;1.47;;;;;;;;;;5093329;28;20073;-69
2024/01/03 08:20:09;;;;;;;6.30;1.20;;;;;;;;;;5093639;28;20324;-68
2024/01/03 08:22:34;;;;;;;5.97;1.00;;;;;;;;;;5093472;28;20365;-68
2024/01/03 08:25:00;;;;;;;4.28;1.13;;;;;;;;;;5094413;28;20015;-68
2024/01/03 08:27:25;;;;;;;8.40;1.20;;;;;;;;;;5090257;28;20115;-68
2024/01/03 08:29:51;;;;;;;4.40;1.35;;;;;;;;;;5094119;28;20282;-69
2024/01/03 08:32:16;;;;;;;3.85;1.17;;;;;;;;;;5093287;28;20028;-68
2024/01/03 08:34:44;;;;;;;3.78;1.10;;;;;;;;;;5093580;28;20458;-69
2024/01/03 08:37:09;;;;;;;4.85;0.90;;;;;;;;;;5093504;28;20043;-68
2024/01/03 08:39:34;;;;;;;4.13;0.98;;;;;;;;;;5086329;28;20020;-68
2024/01/03 08:41:59;;;;;;;5.10;1.00;;;;;;;;;;5093711;28;20023;-68
2024/01/03 08:44:25;;;;;;;8.95;1.88;;;;;;;;;;5093552;28;20817;-69
2024/01/03 08:46:50;;;;;;;5.63;1.50;;;;;;;;;;5092687;28;20032;-68
2024/01/03 08:49:15;;;;;;;3.67;1.02;;;;;;;;;;5093127;28;20054;-69
2024/01/03 08:51:43;;;;;;;5.60;1.60;;;;;;;;;;5092348;28;20118;-69
2024/01/03 08:54:08;;;;;;;4.22;1.33;;;;;;;;;;5072043;28;20018;-69
2024/01/03 08:56:34;;;;;;;8.87;1.30;;;;;;;;;;5093200;28;20428;-68
2024/01/03 08:58:59;;;;;;;5.43;1.10;;;;;;;;;;5092953;28;20756;-68
2024/01/03 09:01:27;;;;;;;7.53;1.70;;;;;;;;;;5089310;28;20632;-68
2024/01/03 09:03:52;;;;;;;5.68;1.52;;;;;;;;;;5087029;28;20270;-68
2024/01/03 09:06:18;;;;;;;6.35;1.02;;;;;;;;;;5086355;28;20028;-68
2024/01/03 09:08:45;;;;;;;9.02;1.77;;;;;;;;;;5092067;28;20371;-68
2024/01/03 09:11:13;;;;;;;6.90;1.20;;;;;;;;;;5091801;28;20024;-68
2024/01/03 09:13:39;;;;;;;15.30;2.25;;;;;;;;;;5091282;28;20027;-70
2024/01/03 09:16:05;;;;;;;5.93;1.60;;;;;;;;;;5091522;28;20443;-68
2024/01/03 09:18:30;;;;;;;6.95;1.73;;;;;;;;;;5090283;28;20052;-69
2024/01/03 09:20:57;;;;;;;8.83;1.67;;;;;;;;;;5090889;28;20362;-69
2024/01/03 09:23:22;;;;;;;6.80;1.52;;;;;;;;;;5090802;28;20373;-70
2024/01/03 09:25:49;;;;;;;7.78;2.30;;;;;;;;;;5090395;28;20124;-69
2024/01/03 09:28:15;;;;;;;10.40;1.77;;;;;;;;;;5088629;28;20024;-69
2024/01/03 09:30:40;;;;;;;7.93;1.88;;;;;;;;;;5089703;28;20036;-69
2024/01/03 09:33:05;;;;;;;8.77;2.25;;;;;;;;;;5089935;28;20099;-70
2024/01/03 09:35:30;;;;;;;5.03;2.25;;;;;;;;;;5058288;28;20784;-69
2024/01/03 09:37:56;;;;;;;14.17;3.47;;;;;;;;;;5090603;28;20438;-71
2024/01/03 09:40:21;;;;;;;10.60;3.17;;;;;;;;;;5092334;28;20270;-69
2024/01/03 09:42:46;;;;;;;12.32;3.25;;;;;;;;;;5093148;28;20633;-69
2024/01/03 09:45:12;;;;;;;11.05;2.97;;;;;;;;;;5083823;28;20027;-69
2024/01/03 09:47:37;;;;;;;12.10;1.77;;;;;;;;;;5085580;28;20031;-70
2024/01/03 09:50:02;;;;;;;8.13;2.23;;;;;;;;;;5085668;28;20035;-68
2024/01/03 09:52:28;;;;;;;7.20;2.10;;;;;;;;;;5083977;28;20278;-69
2024/01/03 09:54:54;;;;;;;10.57;2.42;;;;;;;;;;5077570;28;20020;-68
2024/01/03 09:57:20;;;;;;;7.15;2.42;;;;;;;;;;5092371;28;20024;-68
2024/01/03 09:59:46;;;;;;;11.38;1.80;;;;;;;;;;5092916;28;20097;-68
2024/01/03 10:02:12;;;;;;;8.47;1.80;;;;;;;;;;5089654;28;20463;-68
2024/01/03 10:04:37;;;;;;;6.07;1.67;;;;;;;;;;5085625;28;20447;-70
2024/01/03 10:07:03;;;;;;;5.57;1.38;;;;;;;;;;5072508;28;20115;-68
2024/01/03 10:09:41;;;;;;;5.80;1.67;;;;;;;;;;5080142;28;20382;-69
2024/01/03 10:12:17;;;;;;;10.82;2.20;;;;;;;;;;5078463;28;20615;-69
2024/01/03 10:14:43;;;;;;;9.40;1.73;;;;;;;;;;5080032;28;20020;-70
2024/01/03 10:17:09;;;;;;;8.38;1.60;;;;;;;;;;5090366;28;20012;-69
2024/01/03 10:19:34;;;;;;;8.00;1.50;;;;;;;;;;5086084;28;20154;-69
2024/01/03 10:22:01;;;;;;;9.37;1.80;;;;;;;;;;5090127;28;20102;-69
2024/01/03 10:24:28;;;;;;;4.85;1.50;;;;;;;;;;5089211;28;20266;-70
2024/01/03 10:26:54;;;;;;;12.93;2.10;;;;;;;;;;5091795;28;20047;-69
2024/01/03 10:29:19;;;;;;;5.32;1.90;;;;;;;;;;5082495;28;20077;-69
2024/01/03 10:31:46;;;;;;;6.65;1.38;;;;;;;;;;5090870;28;20044;-69
2024/01/03 10:34:15;;;;;;;8.55;2.28;;;;;;;;;;5091758;28;20028;-70
2024/01/03 10:36:41;;;;;;;7.20;1.88;;;;;;;;;;5090738;28;20059;-70
2024/01/03 10:39:07;;;;;;;6.72;2.05;;;;;;;;;;5091720;28;20036;-70
2024/01/03 10:41:32;;;;;;;9.52;2.08;;;;;;;;;;5090872;28;20089;-69
2024/01/03 10:44:01;;;;;;;6.05;1.25;;;;;;;;;;5045636;28;20074;-69
2024/01/03 10:46:29;;;;;;;7.65;1.55;;;;;;;;;;5044895;28;20117;-68
2024/01/03 10:48:55;;;;;;;4.97;1.52;;;;;;;;;;5043776;28;20031;-70
2024/01/03 10:51:22;;;;;;;4.97;1.70;;;;;;;;;;5045178;28;20067;-68
2024/01/03 10:53:47;;;;;;;3.97;1.33;;;;;;;;;;5045247;28;20016;-68
2024/01/03 10:56:14;;;;;;;7.68;1.88;;;;;;;;;;5042304;28;20059;-68
2024/01/03 10:58:39;;;;;;;9.35;2.42;;;;;;;;;;5045091;28;20031;-69
2024/01/03 11:01:25;;;;;;;5.10;1.90;;;;;;;;;;5041886;28;20051;-70
2024/01/03 11:03:58;;;;;;;6.75;2.00;;;;;;;;;;5038058;28;20123;-69
2024/01/03 11:06:49;;;;;;;8.48;2.20;;;;;;;;;;5044428;28;20028;-68
2024/01/03 11:09:14;;;;;;;7.90;1.20;;;;;;;;;;5005914;28;20048;-69
2024/01/03 11:11:40;;;;;;;5.32;1.50;;;;;;;;;;5044389;28;20089;-68
2024/01/03 11:14:18;;;;;;;11.88;2.30;;;;;;;;;;5043229;28;20064;-68
2024/01/03 11:16:43;;;;;;;11.93;1.90;;;;;;;;;;5044451;28;20028;-68
2024/01/03 11:19:09;;;;;;;7.43;1.58;;;;;;;;;;5043438;28;20032;-68
2024/01/03 11:21:35;;;;;;;4.05;1.52;;;;;;;;;;5044158;28;20020;-70
2024/01/03 11:24:01;;;;;;;7.15;1.70;;;;;;;;;;5044199;28;20532;-68
2024/01/03 11:26:44;;;;;;;9.75;2.45;;;;;;;;;;5045667;28;20536;-69
2024/01/03 11:29:10;;;;;;;12.10;2.17;;;;;;;;;;5047500;28;20120;-69
2024/01/03 11:31:54;;;;;;;9.30;2.00;;;;;;;;;;5048469;28;20361;-69
2024/01/03 11:34:38;;;;;;;3.97;1.63;;;;;;;;;;5048373;28;20085;-67
2024/01/03 11:37:04;;;;;;;11.93;3.08;;;;;;;;;;5043470;28;20198;-68
2024/01/03 11:39:36;;;;;;;6.30;1.60;;;;;;;;;;5047833;28;20086;-68
2024/01/03 11:42:02;;;;;;;7.75;1.80;;;;;;;;;;5030828;28;20134;-67
2024/01/03 11:44:27;;;;;;;9.90;1.83;;;;;;;;;;5046358;28;20175;-68
2024/01/03 11:46:59;;;;;;;7.20;1.70;;;;;;;;;;5048307;28;20528;-68
2024/01/03 11:49:24;;;;;;;5.18;1.83;;;;;;;;;;5037898;28;20294;-67
2024/01/03 11:51:49;;;;;;;6.80;1.73;;;;;;;;;;5047296;28;20024;-67
2024/01/03 11:54:14;;;;;;;8.82;2.25;;;;;;;;;;5048378;28;20266;-67
2024/01/03 11:56:40;;;;;;;9.77;2.30;;;;;;;;;;5048846;28;20075;-69
2024/01/03 11:59:05;;;;;;;6.33;1.63;;;;;;;;;;5048214;28;20269;-68
2024/01/03 12:01:30;;;;;;;5.27;1.83;;;;;;;;;;5048073;28;20389;-68
2024/01/03 12:04:08;;;;;;;5.38;1.50;;;;;;;;;;5047533;28;20281;-68
2024/01/03 12:06:34;;;;;;;7.47;1.95;;;;;;;;;;5048672;28;20090;-67
2024/01/03 12:08:59;;;;;;;8.68;1.98;;;;;;;;;;5047472;28;20031;-68
2024/01/03 12:11:25;;;;;;;7.75;2.10;;;;;;;;;;5047315;28;20780;-68
2024/01/03 12:13:51;;;;;;;4.68;1.58;;;;;;;;;;5046961;28;20044;-68
2024/01/03 12:16:16;;;;;;;7.75;2.33;;;;;;;;;;5046419;28;20842;-67
2024/01/03 12:18:51;;;;;;;8.20;2.10;;;;;;;;;;5047284;28;20043;-67
2024/01/03 12:21:16;;;;;;;8.25;2.28;;;;;;;;;;5046662;28;20024;-67
2024/01/03 12:24:11;;;;;;;8.98;1.90;;;;;;;;;;5066303;28;20077;-68
2024/01/03 12:26:36;;;;;;;6.32;1.60;;;;;;;;;;5076176;28;20149;-68
2024/01/03 12:29:02;;;;;;;7.40;2.63;;;;;;;;;;5092816;28;20060;-68
2024/01/03 12:31:27;;;;;;;9.63;1.70;;;;;;;;;;5093421;28;20772;-68
2024/01/03 12:33:52;;;;;;;5.77;1.93;;;;;;;;;;5093452;28;20114;-67
2024/01/03 12:36:17;;;;;;;6.07;1.57;;;;;;;;;;5092000;28;20361;-68
2024/01/03 12:38:43;;;;;;;9.63;2.20;;;;;;;;;;5088619;28;20369;-68
2024/01/03 12:41:08;;;;;;;9.43;1.45;;;;;;;;;;5089785;28;20028;-68
2024/01/03 12:43:33;;;;;;;7.43;1.35;;;;;;;;;;5085886;28;20123;-69
2024/01/03 12:45:59;;;;;;;9.98;1.88;;;;;;;;;;5093083;28;20020;-68
2024/01/03 12:48:24;;;;;;;9.32;1.45;;;;;;;;;;5091776;28;20031;-68
2024/01/03 12:50:52;;;;;;;8.90;1.53;;;;;;;;;;5093394;28;20020;-67
2024/01/03 12:53:17;;;;;;;8.23;1.45;;;;;;;;;;5093606;28;20270;-68
2024/01/03 12:55:43;;;;;;;8.45;1.80;;;;;;;;;;5092662;28;20024;-67
2024/01/03 12:58:08;;;;;;;6.50;2.13;;;;;;;;;;5092198;28;20566;-68
2024/01/03 13:00:33;;;;;;;9.13;1.30;;;;;;;;;;5086127;28;20679;-68
2024/01/03 13:02:59;;;;;;;3.85;1.15;;;;;;;;;;5084254;28;20050;-69
2024/01/03 13:05:24;;;;;;;6.63;1.45;;;;;;;;;;5093412;28;20059;-68
2024/01/03 13:07:49;;;;;;;7.17;1.70;;;;;;;;;;5091312;28;20073;-68
2024/01/03 13:10:15;;;;;;;6.13;1.80;;;;;;;;;;5081492;28;20296;-68
2024/01/03 13:12:40;;;;;;;5.78;1.75;;;;;;;;;;5093401;28;20780;-68
2024/01/03 13:15:06;;;;;;;8.73;1.60;;;;;;;;;;5091491;28;20016;-68
2024/01/03 13:17:31;;;;;;;3.67;1.33;;;;;;;;;;5093503;28;20065;-68
2024/01/03 13:19:56;;;;;;;5.68;1.30;;;;;;;;;;5092777;28;20081;-69
2024/01/03 13:22:22;;;;;;;4.90;1.87;;;;;;;;;;5092850;28;20069;-70
2024/01/03 13:24:47;;;;;;;6.90;1.52;;;;;;;;;;5069992;28;20298;-69
2024/01/03 13:27:14;;;;;;;2.85;1.00;;;;;;;;;;5080859;28;20028;-70
2024/01/03 13:29:39;;;;;;;5.00;1.10;;;;;;;;;;5093142;28;20028;-68
2024/01/03 13:32:05;;;;;;;5.63;0.87;;;;;;;;;;5092783;28;20032;-69
2024/01/03 13:34:31;;;;;;;8.48;1.17;;;;;;;;;;5058254;28;21214;-67
2024/01/03 13:36:56;;;;;;;3.40;1.08;;;;;;;;;;5046205;28;20218;-65
2024/01/03 13:39:21;;;;;;;5.30;1.65;;;;;;;;;;5044340;28;20031;-64
2024/01/03 13:41:46;;;;;;;8.02;1.38;;;;;;;;;;5044392;28;20028;-67
2024/01/03 13:44:12;;;;;;;3.27;1.33;;;;;;;;;;5045135;28;20089;-66
2024/01/03 13:46:37;;;;;;;5.90;1.13;;;;;;;;;;5065651;28;20278;-67
2024/01/03 13:49:02;;;;;;;8.80;1.67;;;;;;;;;;5049950;28;20044;-66
2024/01/03 13:51:27;;;;;;;7.30;1.30;;;;;;;;;;5047050;28;20294;-69
2024/01/03 13:53:57;;;;;;;5.20;1.13;;;;;;;;;;5050768;28;20869;-67
2024/01/03 13:56:23;;;;;;;5.03;1.60;;;;;;;;;;5047653;28;20028;-71
2024/01/03 13:58:48;;;;;;;5.60;1.40;;;;;;;;;;5022290;28;20139;-71
2024/01/03 14:01:17;;;;;;;4.75;1.15;;;;;;;;;;5074353;28;20043;-70
2024/01/03 14:03:42;;;;;;;10.48;1.80;;;;;;;;;;5038175;28;20055;-69
2024/01/03 14:06:09;;;;;;;11.50;2.17;;;;;;;;;;5063419;28;20024;-70
2024/01/03 14:08:35;;;;;;;9.18;1.88;;;;;;;;;;5069763;28;20024;-67
2024/01/03 14:11:03;;;;;;;4.90;1.35;;;;;;;;;;5046225;28;20139;-67
2024/01/03 14:13:29;;;;;;;7.13;1.77;;;;;;;;;;5050031;28;20038;-69
2024/01/03 14:15:54;;;;;;;5.78;1.58;;;;;;;;;;5045868;28;20016;-68
2024/01/03 14:18:19;;;;;;;6.53;2.03;;;;;;;;;;5045473;28;20021;-70
2024/01/03 14:20:45;;;;;;;9.13;3.00;;;;;;;;;;5060682;28;20269;-69
2024/01/03 14:23:12;;;;;;;10.65;2.22;;;;;;;;;;5092018;28;20133;-68
2024/01/03 14:25:37;;;;;;;12.57;1.95;;;;;;;;;;5083835;28;20028;-68
2024/01/03 14:28:03;;;;;;;6.70;2.25;;;;;;;;;;5082237;28;20020;-68
2024/01/03 14:30:28;;;;;;;9.90;1.98;;;;;;;;;;5070621;28;20064;-72
2024/01/03 14:32:53;;;;;;;10.75;2.58;;;;;;;;;;5084194;28;20051;-68